Time;durP1;ratioP1;P1;durP2;ratioP2;P2;SDS_P1;SDS_P2;PMS_P1;PMS_P2;Temp;Humidity;BMP_temperature;BMP_pressure;BME280_temperature;BME280_humidity;BME280_pressure;Samples;Min_cycle;Max_cycle;Signal;HPM_P1;HPM_P2
2021/07/28 00:03:25;;;;;;;11.18;5.65;;;;;;;;;;8255098;28;20482;-72
2021/07/28 00:07:30;;;;;;;8.65;5.15;;;;;;;;;;8256831;28;20367;-72
2021/07/28 00:11:34;;;;;;;9.70;5.50;;;;;;;;;;8256289;28;20049;-73
2021/07/28 00:15:38;;;;;;;5.82;4.45;;;;;;;;;;8255895;28;20424;-72
2021/07/28 00:19:51;;;;;;;7.72;4.70;;;;;;;;;;8240549;28;20477;-71
2021/07/28 00:23:55;;;;;;;5.97;4.90;;;;;;;;;;8260657;28;20071;-72
2021/07/28 00:28:00;;;;;;;7.35;4.47;;;;;;;;;;8261168;28;20376;-72
2021/07/28 00:32:06;;;;;;;9.07;4.80;;;;;;;;;;8264575;28;20402;-72
2021/07/28 00:36:11;;;;;;;9.20;5.32;;;;;;;;;;8264606;28;20443;-72
2021/07/28 00:40:17;;;;;;;9.57;5.10;;;;;;;;;;8260394;28;20104;-73
2021/07/28 00:44:22;;;;;;;12.07;4.95;;;;;;;;;;8264002;28;20360;-73
2021/07/28 00:48:26;;;;;;;11.80;5.68;;;;;;;;;;8262963;28;20103;-72
2021/07/28 00:52:31;;;;;;;6.63;5.03;;;;;;;;;;8262408;28;20045;-74
2021/07/28 00:56:37;;;;;;;8.43;4.75;;;;;;;;;;8261153;28;20465;-72
2021/07/28 01:00:43;;;;;;;10.70;5.50;;;;;;;;;;8260903;28;20487;-72
2021/07/28 01:04:48;;;;;;;11.85;5.32;;;;;;;;;;8261970;28;20333;-72
2021/07/28 01:08:53;;;;;;;9.85;5.15;;;;;;;;;;8243848;28;20497;-72
2021/07/28 01:12:59;;;;;;;9.88;5.07;;;;;;;;;;8262211;28;20464;-72
2021/07/28 01:17:04;;;;;;;11.20;5.55;;;;;;;;;;8261628;28;20040;-72
2021/07/28 01:21:11;;;;;;;8.60;5.07;;;;;;;;;;8261917;28;20383;-72
2021/07/28 01:25:16;;;;;;;10.18;5.32;;;;;;;;;;8259529;28;20333;-72
2021/07/28 01:29:26;;;;;;;8.73;5.65;;;;;;;;;;8261593;28;20545;-72
2021/07/28 01:33:35;;;;;;;8.38;5.55;;;;;;;;;;8258961;28;20487;-72
2021/07/28 01:37:42;;;;;;;7.50;5.53;;;;;;;;;;8259762;28;20362;-72
2021/07/28 01:41:58;;;;;;;13.23;5.72;;;;;;;;;;8258685;28;20056;-72
2021/07/28 01:46:04;;;;;;;7.10;4.88;;;;;;;;;;8258908;28;20468;-72
2021/07/28 01:50:10;;;;;;;12.52;5.65;;;;;;;;;;8261455;28;20344;-72
2021/07/28 01:54:15;;;;;;;7.95;4.93;;;;;;;;;;8261548;28;20403;-72
2021/07/28 01:58:19;;;;;;;8.15;5.55;;;;;;;;;;8261653;28;20363;-71
2021/07/28 02:02:24;;;;;;;8.32;4.80;;;;;;;;;;8259416;28;20351;-73
2021/07/28 02:06:29;;;;;;;8.88;5.22;;;;;;;;;;8257975;28;20412;-72
2021/07/28 02:10:34;;;;;;;9.93;5.28;;;;;;;;;;8259533;28;20045;-72
2021/07/28 02:14:39;;;;;;;8.13;4.80;;;;;;;;;;8260877;28;20087;-72
2021/07/28 02:18:45;;;;;;;6.45;4.80;;;;;;;;;;8261331;28;20483;-72
2021/07/28 02:22:51;;;;;;;8.40;5.15;;;;;;;;;;8259466;28;20626;-72
2021/07/28 02:26:55;;;;;;;8.52;5.47;;;;;;;;;;8258838;28;20341;-72
2021/07/28 02:31:00;;;;;;;12.57;5.50;;;;;;;;;;8261330;28;20363;-71
2021/07/28 02:35:06;;;;;;;8.90;5.80;;;;;;;;;;8258388;28;20064;-72
2021/07/28 02:39:11;;;;;;;8.10;5.05;;;;;;;;;;8257315;28;20387;-72
2021/07/28 02:43:17;;;;;;;9.73;5.05;;;;;;;;;;8258259;28;20045;-73
2021/07/28 02:47:21;;;;;;;6.45;4.70;;;;;;;;;;8258256;28;20487;-72
2021/07/28 02:51:26;;;;;;;6.90;5.25;;;;;;;;;;8259065;28;20356;-72
2021/07/28 02:55:32;;;;;;;13.65;5.13;;;;;;;;;;8257251;28;20448;-72
2021/07/28 02:59:37;;;;;;;8.98;5.40;;;;;;;;;;8258494;28;20048;-71
2021/07/28 03:03:42;;;;;;;12.45;4.95;;;;;;;;;;8255666;28;20502;-73
2021/07/28 03:07:45;;;;;;;13.00;5.75;;;;;;;;;;8272676;28;20456;-72
2021/07/28 03:11:50;;;;;;;11.82;5.18;;;;;;;;;;8257747;28;20367;-73
2021/07/28 03:15:55;;;;;;;8.52;5.10;;;;;;;;;;8241191;28;20482;-72
2021/07/28 03:20:00;;;;;;;10.63;5.25;;;;;;;;;;8257350;28;20463;-72
2021/07/28 03:24:05;;;;;;;7.75;4.65;;;;;;;;;;8258260;28;20482;-72
2021/07/28 03:28:11;;;;;;;8.60;5.32;;;;;;;;;;8255529;28;20483;-72
2021/07/28 03:32:16;;;;;;;7.38;4.45;;;;;;;;;;8257311;28;20033;-73
2021/07/28 03:36:21;;;;;;;9.07;5.30;;;;;;;;;;8257439;28;20360;-72
2021/07/28 03:40:25;;;;;;;10.48;5.47;;;;;;;;;;8257495;28;20347;-72
2021/07/28 03:44:30;;;;;;;13.27;5.60;;;;;;;;;;8257200;28;20403;-72
2021/07/28 03:48:35;;;;;;;7.70;5.00;;;;;;;;;;8258319;28;20375;-72
2021/07/28 03:52:41;;;;;;;8.25;4.95;;;;;;;;;;8257396;28;20411;-73
2021/07/28 03:56:45;;;;;;;9.07;5.07;;;;;;;;;;8257477;28;20460;-72
2021/07/28 04:00:50;;;;;;;7.35;4.82;;;;;;;;;;8261901;28;20460;-72
2021/07/28 04:04:55;;;;;;;7.93;4.72;;;;;;;;;;8262839;28;20076;-72
2021/07/28 04:09:00;;;;;;;11.48;5.28;;;;;;;;;;8262885;28;20515;-72
2021/07/28 04:13:05;;;;;;;10.73;4.60;;;;;;;;;;8263629;28;20367;-72
2021/07/28 04:17:11;;;;;;;9.10;5.60;;;;;;;;;;8263486;28;20460;-72
2021/07/28 04:21:16;;;;;;;6.55;4.88;;;;;;;;;;8263018;28;20344;-72
2021/07/28 04:25:21;;;;;;;10.40;5.68;;;;;;;;;;8262395;28;20490;-72
2021/07/28 04:29:25;;;;;;;5.93;4.63;;;;;;;;;;8263817;28;20384;-72
2021/07/28 04:33:31;;;;;;;10.50;5.60;;;;;;;;;;8262331;28;20403;-71
2021/07/28 04:37:36;;;;;;;11.50;4.60;;;;;;;;;;8277350;28;20363;-72
2021/07/28 04:41:41;;;;;;;11.52;4.60;;;;;;;;;;8264107;28;20371;-72
2021/07/28 04:45:46;;;;;;;12.13;5.30;;;;;;;;;;8261662;28;20402;-72
2021/07/28 04:49:52;;;;;;;9.45;4.95;;;;;;;;;;8260006;28;20088;-72
2021/07/28 04:53:57;;;;;;;10.20;4.75;;;;;;;;;;8276820;28;20037;-73
2021/07/28 04:58:02;;;;;;;8.63;4.50;;;;;;;;;;8260909;28;20360;-72
2021/07/28 05:02:07;;;;;;;10.88;4.45;;;;;;;;;;8261807;28;20507;-72
2021/07/28 05:06:58;;;;;;;11.57;4.97;;;;;;;;;;8318128;27;1905287;-72
2021/07/28 05:11:04;;;;;;;6.88;3.90;;;;;;;;;;8316986;28;20366;-71
2021/07/28 05:15:10;;;;;;;9.13;4.30;;;;;;;;;;8352960;28;20339;-73
2021/07/28 05:19:15;;;;;;;8.43;3.55;;;;;;;;;;8351936;28;20355;-72
2021/07/28 05:23:20;;;;;;;8.27;4.22;;;;;;;;;;8352229;28;20067;-73
2021/07/28 05:27:26;;;;;;;9.35;3.88;;;;;;;;;;8351107;28;20382;-72
2021/07/28 05:31:31;;;;;;;10.70;3.90;;;;;;;;;;8351461;28;20058;-72
2021/07/28 05:35:37;;;;;;;8.60;3.85;;;;;;;;;;8351541;28;20470;-71
2021/07/28 05:39:42;;;;;;;7.03;3.63;;;;;;;;;;8350648;28;20036;-72
2021/07/28 05:43:48;;;;;;;8.07;3.92;;;;;;;;;;8334709;28;20078;-72
2021/07/28 05:47:54;;;;;;;10.38;3.58;;;;;;;;;;8350470;28;20087;-72
2021/07/28 05:51:59;;;;;;;5.88;3.70;;;;;;;;;;8332453;28;20375;-72
2021/07/28 05:56:06;;;;;;;7.07;3.67;;;;;;;;;;8332625;28;20101;-73
2021/07/28 06:00:12;;;;;;;8.85;3.78;;;;;;;;;;8285459;28;20372;-72
2021/07/28 06:04:18;;;;;;;5.93;3.38;;;;;;;;;;8263598;28;20526;-72
2021/07/28 06:08:23;;;;;;;8.98;3.83;;;;;;;;;;8265426;28;20369;-73
2021/07/28 06:12:29;;;;;;;9.15;3.42;;;;;;;;;;8283185;28;20348;-72
2021/07/28 06:16:34;;;;;;;6.95;3.53;;;;;;;;;;8254852;28;20363;-72
2021/07/28 06:20:39;;;;;;;6.60;3.30;;;;;;;;;;8228104;28;20387;-72
2021/07/28 06:24:45;;;;;;;5.38;3.47;;;;;;;;;;8261540;28;21063;-72
2021/07/28 06:28:50;;;;;;;6.82;3.30;;;;;;;;;;8261199;28;20344;-72
2021/07/28 06:32:55;;;;;;;7.30;4.05;;;;;;;;;;8243401;28;20371;-72
2021/07/28 06:37:02;;;;;;;6.20;3.15;;;;;;;;;;8259467;28;20456;-72
2021/07/28 06:41:06;;;;;;;5.18;2.97;;;;;;;;;;8216170;28;20464;-72
2021/07/28 06:45:12;;;;;;;4.80;2.72;;;;;;;;;;8240145;28;20506;-72
2021/07/28 06:49:17;;;;;;;7.20;2.83;;;;;;;;;;8228526;28;20053;-72
2021/07/28 06:53:22;;;;;;;6.97;3.22;;;;;;;;;;8228116;28;20367;-73
2021/07/28 06:57:29;;;;;;;5.70;2.80;;;;;;;;;;8211433;28;20364;-72
2021/07/28 07:01:35;;;;;;;6.97;3.10;;;;;;;;;;8210335;28;20371;-72
2021/07/28 07:05:41;;;;;;;9.82;3.53;;;;;;;;;;8242372;28;20053;-72
2021/07/28 07:09:48;;;;;;;10.60;3.72;;;;;;;;;;8227450;28;20344;-72
2021/07/28 07:13:53;;;;;;;10.25;2.80;;;;;;;;;;8192413;28;20475;-72
2021/07/28 07:17:58;;;;;;;7.55;2.88;;;;;;;;;;8226290;28;20387;-76
2021/07/28 07:22:04;;;;;;;8.55;2.83;;;;;;;;;;8211226;28;20046;-73
2021/07/28 07:26:09;;;;;;;6.32;2.53;;;;;;;;;;8243062;28;20355;-72
2021/07/28 07:30:13;;;;;;;10.20;2.15;;;;;;;;;;8208483;28;20491;-72
2021/07/28 07:34:18;;;;;;;6.72;2.17;;;;;;;;;;8227143;28;20490;-73
2021/07/28 07:38:24;;;;;;;11.68;2.63;;;;;;;;;;8228582;28;20356;-72
2021/07/28 07:42:30;;;;;;;8.52;2.20;;;;;;;;;;8226971;28;20049;-72
2021/07/28 07:46:38;;;;;;;3.13;1.63;;;;;;;;;;8210291;28;20345;-71
2021/07/28 07:50:43;;;;;;;8.43;2.20;;;;;;;;;;8209006;28;20479;-73
2021/07/28 07:54:49;;;;;;;9.43;2.55;;;;;;;;;;8228025;28;20067;-72
2021/07/28 07:58:54;;;;;;;10.50;2.10;;;;;;;;;;8208457;28;20053;-72
2021/07/28 08:02:59;;;;;;;3.47;1.95;;;;;;;;;;8208626;28;20059;-72
2021/07/28 08:07:04;;;;;;;6.53;2.13;;;;;;;;;;8225540;28;20053;-73
2021/07/28 08:11:14;;;;;;;7.07;2.47;;;;;;;;;;8207650;28;20402;-73
2021/07/28 08:15:19;;;;;;;9.88;2.75;;;;;;;;;;8209877;28;20067;-72
2021/07/28 08:19:24;;;;;;;7.05;2.35;;;;;;;;;;8226092;28;20472;-73
2021/07/28 08:23:30;;;;;;;11.80;3.40;;;;;;;;;;8226478;28;20060;-72
2021/07/28 08:27:35;;;;;;;6.80;2.00;;;;;;;;;;8225116;28;20502;-73
2021/07/28 08:31:39;;;;;;;7.93;2.63;;;;;;;;;;8210456;28;20452;-72
2021/07/28 08:36:05;;;;;;;5.93;2.20;;;;;;;;;;8212454;28;20400;-72
2021/07/28 08:40:12;;;;;;;5.60;2.33;;;;;;;;;;8224914;28;20371;-73
2021/07/28 08:44:20;;;;;;;4.13;2.00;;;;;;;;;;8207717;28;20049;-72
2021/07/28 08:48:29;;;;;;;6.28;2.45;;;;;;;;;;8224847;28;20333;-73
2021/07/28 08:52:35;;;;;;;8.50;2.28;;;;;;;;;;8207210;28;20488;-72
2021/07/28 08:56:41;;;;;;;5.93;2.75;;;;;;;;;;8206962;28;20345;-72
2021/07/28 09:00:47;;;;;;;;;;;;;;;;;;8225266;28;20057;-73
2021/07/28 09:04:53;;;;;;;11.93;2.43;;;;;;;;;;8207399;28;20335;-73
2021/07/28 09:09:02;;;;;;;7.75;2.85;;;;;;;;;;8239881;28;20373;-71
2021/07/28 09:13:07;;;;;;;6.55;2.38;;;;;;;;;;8207494;28;20437;-71
2021/07/28 09:17:15;;;;;;;9.07;2.57;;;;;;;;;;8207181;28;20485;-71
2021/07/28 09:21:21;;;;;;;9.88;2.90;;;;;;;;;;8208588;28;20480;-72
2021/07/28 09:25:31;;;;;;;5.45;2.13;;;;;;;;;;8225162;28;20037;-71
2021/07/28 09:29:39;;;;;;;6.88;2.60;;;;;;;;;;8223481;28;20358;-71
2021/07/28 09:34:18;;;;;;;10.18;3.13;;;;;;;;;;8205904;28;20486;-73
2021/07/28 09:38:29;;;;;;;7.15;2.42;;;;;;;;;;8223528;28;20410;-72
2021/07/28 09:42:34;;;;;;;9.32;2.75;;;;;;;;;;8224206;28;20053;-71
2021/07/28 09:46:40;;;;;;;4.93;2.45;;;;;;;;;;8206580;28;20451;-71
2021/07/28 09:50:45;;;;;;;6.90;2.40;;;;;;;;;;8239556;28;20489;-71
2021/07/28 09:54:52;;;;;;;9.15;3.08;;;;;;;;;;8195878;28;20772;-72
2021/07/28 09:58:59;;;;;;;10.05;3.28;;;;;;;;;;8211094;28;20365;-71
2021/07/28 10:03:05;;;;;;;10.55;2.40;;;;;;;;;;8243573;28;20475;-72
2021/07/28 10:07:11;;;;;;;;;;;;;;;;;;8212960;28;20329;-71
2021/07/28 10:11:16;;;;;;;9.25;2.67;;;;;;;;;;8211381;28;19944;-72
2021/07/28 10:15:21;;;;;;;9.75;2.55;;;;;;;;;;8229936;28;20452;-72
2021/07/28 10:19:26;;;;;;;8.77;2.78;;;;;;;;;;8210781;28;20331;-70
2021/07/28 10:23:31;;;;;;;6.38;2.75;;;;;;;;;;8226671;28;20460;-71
2021/07/28 10:27:51;;;;;;;9.73;3.58;;;;;;;;;;8226436;28;20403;-71
2021/07/28 10:31:57;;;;;;;7.40;3.33;;;;;;;;;;8227180;28;20476;-71
2021/07/28 10:36:03;;;;;;;8.52;2.85;;;;;;;;;;8231528;28;20456;-71
2021/07/28 10:40:28;;;;;;;6.30;2.63;;;;;;;;;;8212586;28;20105;-71
2021/07/28 10:45:02;;;;;;;9.57;3.08;;;;;;;;;;8229669;28;20057;-71
2021/07/28 10:49:09;;;;;;;8.00;2.88;;;;;;;;;;8208699;28;20372;-71
2021/07/28 10:53:13;;;;;;;10.15;3.20;;;;;;;;;;8207660;28;20064;-72
2021/07/28 10:57:53;;;;;;;12.38;3.20;;;;;;;;;;8226719;28;20049;-71
2021/07/28 11:01:58;;;;;;;12.45;3.30;;;;;;;;;;8207270;28;20488;-71
2021/07/28 11:06:18;;;;;;;9.23;2.78;;;;;;;;;;8208446;28;20364;-71
2021/07/28 11:10:23;;;;;;;12.15;3.50;;;;;;;;;;8226428;28;20430;-72
2021/07/28 11:14:27;;;;;;;13.40;3.22;;;;;;;;;;8208450;28;20371;-72
2021/07/28 11:18:48;;;;;;;7.88;2.97;;;;;;;;;;8207151;28;20076;-71
2021/07/28 11:22:53;;;;;;;7.47;2.55;;;;;;;;;;8210219;28;20429;-71
2021/07/28 11:26:58;;;;;;;11.27;3.45;;;;;;;;;;8209886;28;20364;-72
2021/07/28 11:31:04;;;;;;;9.95;3.75;;;;;;;;;;8228430;28;20510;-72
2021/07/28 11:35:10;;;;;;;14.88;3.90;;;;;;;;;;8210781;28;20365;-71
2021/07/28 11:39:17;;;;;;;12.30;4.07;;;;;;;;;;8227730;28;20347;-71
2021/07/28 11:47:02;;;;;;;12.73;4.15;;;;;;;;;;7925850;27;1246149;-73
2021/07/28 11:51:32;;;;;;;10.90;4.05;;;;;;;;;;8025886;28;20355;-73
2021/07/28 11:55:38;;;;;;;17.83;4.43;;;;;;;;;;8265904;28;20477;-73
2021/07/28 11:59:44;;;;;;;13.48;4.07;;;;;;;;;;8199612;28;20411;-73
2021/07/28 12:03:58;;;;;;;13.02;3.55;;;;;;;;;;8224250;28;20601;-73
2021/07/28 12:08:03;;;;;;;15.38;4.35;;;;;;;;;;8285918;28;20486;-74
2021/07/28 12:12:19;;;;;;;12.05;4.07;;;;;;;;;;8302055;28;20332;-73
2021/07/28 12:16:24;;;;;;;12.18;3.20;;;;;;;;;;8300679;28;20409;-73
2021/07/28 12:20:29;;;;;;;11.75;3.60;;;;;;;;;;8267593;28;20372;-73
2021/07/28 12:24:38;;;;;;;7.80;3.72;;;;;;;;;;8250561;28;20525;-72
2021/07/28 12:28:51;;;;;;;10.00;4.18;;;;;;;;;;8285121;28;20402;-73
2021/07/28 12:33:15;;;;;;;11.82;4.28;;;;;;;;;;8301174;28;20363;-73
2021/07/28 12:37:24;;;;;;;13.25;4.03;;;;;;;;;;8283019;28;20509;-72
2021/07/28 12:41:30;;;;;;;13.13;3.83;;;;;;;;;;8282968;28;20489;-73
2021/07/28 12:45:37;;;;;;;12.13;3.40;;;;;;;;;;8233924;28;20489;-73
2021/07/28 12:49:42;;;;;;;13.95;3.30;;;;;;;;;;8286116;28;20048;-72
2021/07/28 12:53:48;;;;;;;9.77;3.67;;;;;;;;;;8282162;28;20379;-74
2021/07/28 12:57:54;;;;;;;14.10;4.20;;;;;;;;;;8266197;28;20037;-72
2021/07/28 13:02:03;;;;;;;6.55;3.35;;;;;;;;;;8261825;28;20471;-73
2021/07/28 13:06:09;;;;;;;9.13;2.78;;;;;;;;;;8261280;28;20410;-74
2021/07/28 13:10:15;;;;;;;11.23;3.25;;;;;;;;;;8260518;28;20387;-74
2021/07/28 13:14:20;;;;;;;10.63;3.80;;;;;;;;;;8259800;28;20345;-72
2021/07/28 13:18:26;;;;;;;12.55;3.25;;;;;;;;;;8261213;28;20098;-73
2021/07/28 13:22:31;;;;;;;17.60;3.38;;;;;;;;;;8261776;28;20071;-73
2021/07/28 13:26:37;;;;;;;7.47;3.33;;;;;;;;;;8275987;28;20045;-73
2021/07/28 13:30:42;;;;;;;8.75;3.10;;;;;;;;;;8265072;28;20368;-72
2021/07/28 13:34:47;;;;;;;9.48;3.42;;;;;;;;;;8257747;28;20356;-73
2021/07/28 13:38:52;;;;;;;9.70;3.92;;;;;;;;;;8259670;28;20472;-73
2021/07/28 13:43:01;;;;;;;10.35;3.20;;;;;;;;;;8260877;28;20464;-73
2021/07/28 13:47:07;;;;;;;9.07;3.42;;;;;;;;;;8259741;28;20479;-72
2021/07/28 13:51:12;;;;;;;10.73;3.38;;;;;;;;;;8274574;28;20064;-73
2021/07/28 13:55:18;;;;;;;9.00;3.05;;;;;;;;;;8260584;28;20071;-73
2021/07/28 13:59:24;;;;;;;14.50;3.37;;;;;;;;;;8274965;28;20388;-73
2021/07/28 14:03:30;;;;;;;14.55;3.85;;;;;;;;;;8260480;28;20068;-73
2021/07/28 14:07:36;;;;;;;10.05;3.22;;;;;;;;;;8257692;28;20049;-72
2021/07/28 14:11:40;;;;;;;11.40;3.60;;;;;;;;;;8256818;28;20479;-73
2021/07/28 14:15:45;;;;;;;10.07;3.28;;;;;;;;;;8259044;28;20383;-73
2021/07/28 14:19:50;;;;;;;14.15;3.80;;;;;;;;;;8273637;28;20480;-73
2021/07/28 14:23:56;;;;;;;16.75;4.05;;;;;;;;;;8257507;28;20460;-73
2021/07/28 14:28:03;;;;;;;7.65;2.95;;;;;;;;;;8259327;28;20052;-73
2021/07/28 14:32:09;;;;;;;7.13;3.20;;;;;;;;;;8273846;28;20499;-73
2021/07/28 14:36:14;;;;;;;12.65;3.45;;;;;;;;;;8260143;28;20380;-73
2021/07/28 14:40:20;;;;;;;9.60;3.15;;;;;;;;;;8257572;28;20332;-73
2021/07/28 14:44:25;;;;;;;10.15;3.15;;;;;;;;;;8241545;28;20486;-73
2021/07/28 14:48:31;;;;;;;13.18;3.70;;;;;;;;;;8259402;28;20045;-73
2021/07/28 14:52:36;;;;;;;11.98;3.75;;;;;;;;;;8257261;28;20483;-73
2021/07/28 14:56:41;;;;;;;12.43;3.00;;;;;;;;;;8259193;28;20403;-73
2021/07/28 15:00:47;;;;;;;9.50;3.33;;;;;;;;;;8258855;28;20476;-73
2021/07/28 15:04:53;;;;;;;11.65;2.92;;;;;;;;;;8258151;28;20671;-72
2021/07/28 15:08:58;;;;;;;12.55;2.80;;;;;;;;;;8271619;28;20481;-72
2021/07/28 15:13:04;;;;;;;8.57;3.60;;;;;;;;;;8257210;28;20407;-73
2021/07/28 15:17:09;;;;;;;5.82;3.00;;;;;;;;;;8256246;28;20651;-72
2021/07/28 15:21:14;;;;;;;11.25;2.88;;;;;;;;;;8255470;28;20463;-72
2021/07/28 15:25:21;;;;;;;8.38;3.55;;;;;;;;;;8258587;28;20439;-72
2021/07/28 15:29:26;;;;;;;8.63;4.00;;;;;;;;;;8257552;28;20033;-73
2021/07/28 15:33:31;;;;;;;10.90;4.47;;;;;;;;;;8259922;28;20365;-72
2021/07/28 15:37:36;;;;;;;6.75;4.10;;;;;;;;;;8255580;28;20399;-73
2021/07/28 15:41:42;;;;;;;12.50;5.20;;;;;;;;;;8271335;28;20361;-73
2021/07/28 15:45:48;;;;;;;9.73;4.65;;;;;;;;;;8254383;28;20469;-73
2021/07/28 15:49:53;;;;;;;10.90;5.57;;;;;;;;;;8255274;28;20467;-72
2021/07/28 15:53:59;;;;;;;16.58;6.88;;;;;;;;;;8259808;28;20464;-73
2021/07/28 15:58:04;;;;;;;16.92;6.20;;;;;;;;;;8258196;28;20379;-72
2021/07/28 16:02:09;;;;;;;13.02;5.07;;;;;;;;;;8212369;28;20376;-72
2021/07/28 16:06:15;;;;;;;10.70;5.45;;;;;;;;;;8255334;28;20045;-72
2021/07/28 16:10:20;;;;;;;9.85;4.88;;;;;;;;;;8255773;28;20483;-72
2021/07/28 16:14:50;;;;;;;13.05;5.95;;;;;;;;;;8272969;28;20418;-72
2021/07/28 16:19:04;;;;;;;9.90;4.28;;;;;;;;;;8257358;28;20372;-72
2021/07/28 16:23:18;;;;;;;5.72;3.22;;;;;;;;;;8270469;28;20460;-72
2021/07/28 16:27:24;;;;;;;13.48;4.15;;;;;;;;;;8254255;28;20335;-72
2021/07/28 16:31:29;;;;;;;15.77;4.45;;;;;;;;;;8256769;28;20345;-72
2021/07/28 16:35:36;;;;;;;7.00;4.05;;;;;;;;;;8241844;28;20344;-72
2021/07/28 16:39:41;;;;;;;13.75;4.88;;;;;;;;;;8244060;28;20337;-72
2021/07/28 16:43:46;;;;;;;82.65;41.22;;;;;;;;;;8261422;28;20380;-73
2021/07/28 16:47:53;;;;;;;105.20;49.75;;;;;;;;;;8276863;28;20428;-72
2021/07/28 16:51:59;;;;;;;24.55;10.13;;;;;;;;;;8260697;28;20360;-73
2021/07/28 16:56:04;;;;;;;16.42;5.90;;;;;;;;;;8143252;28;20456;-72
2021/07/28 17:00:14;;;;;;;9.50;4.75;;;;;;;;;;8261667;28;20079;-72
2021/07/28 17:04:20;;;;;;;10.15;4.88;;;;;;;;;;8261342;28;20356;-72
2021/07/28 17:08:25;;;;;;;14.05;5.70;;;;;;;;;;8261287;28;20049;-73
2021/07/28 17:12:30;;;;;;;13.35;5.40;;;;;;;;;;8262395;28;20041;-72
2021/07/28 17:16:37;;;;;;;12.53;5.43;;;;;;;;;;8260767;28;20483;-72
2021/07/28 17:20:43;;;;;;;20.15;5.53;;;;;;;;;;8259701;28;20346;-72
2021/07/28 17:24:48;;;;;;;18.80;6.10;;;;;;;;;;8276295;28;20475;-72
2021/07/28 17:28:53;;;;;;;11.82;4.32;;;;;;;;;;8276222;28;20464;-72
2021/07/28 17:32:59;;;;;;;11.32;4.93;;;;;;;;;;8275216;28;20399;-73
2021/07/28 17:37:04;;;;;;;15.05;4.95;;;;;;;;;;8257896;28;20468;-72
2021/07/28 17:41:10;;;;;;;15.88;5.00;;;;;;;;;;8260609;28;20375;-72
2021/07/28 17:45:19;;;;;;;8.75;4.22;;;;;;;;;;8260807;28;20325;-72
2021/07/28 17:49:27;;;;;;;9.45;4.35;;;;;;;;;;8261122;28;20367;-71
2021/07/28 17:53:33;;;;;;;9.88;4.30;;;;;;;;;;8275245;28;20471;-72
2021/07/28 17:57:38;;;;;;;8.47;4.50;;;;;;;;;;8258824;28;20049;-72
2021/07/28 18:01:44;;;;;;;11.63;4.78;;;;;;;;;;8216986;28;20379;-72
2021/07/28 18:05:50;;;;;;;13.88;4.97;;;;;;;;;;8260498;28;20460;-72
2021/07/28 18:09:55;;;;;;;9.38;4.20;;;;;;;;;;8261149;28;20486;-72
2021/07/28 18:14:01;;;;;;;11.57;3.88;;;;;;;;;;8242703;28;20048;-72
2021/07/28 18:18:06;;;;;;;13.50;4.20;;;;;;;;;;8219208;28;20459;-72
2021/07/28 18:22:12;;;;;;;15.13;3.97;;;;;;;;;;8258269;28;20045;-72
2021/07/28 18:26:18;;;;;;;14.00;4.90;;;;;;;;;;8257409;28;20376;-72
2021/07/28 18:30:23;;;;;;;9.52;4.20;;;;;;;;;;8259168;28;20326;-72
2021/07/28 18:34:29;;;;;;;8.15;3.95;;;;;;;;;;8181438;28;20356;-71
2021/07/28 18:38:35;;;;;;;10.18;4.30;;;;;;;;;;8257833;28;20382;-72
2021/07/28 18:42:40;;;;;;;17.02;4.63;;;;;;;;;;8258580;28;20067;-72
2021/07/28 18:46:45;;;;;;;15.90;4.53;;;;;;;;;;8258911;28;20368;-72
2021/07/28 18:50:52;;;;;;;12.07;4.78;;;;;;;;;;8256988;28;20364;-72
2021/07/28 18:54:58;;;;;;;9.63;5.72;;;;;;;;;;8257660;28;20480;-71
2021/07/28 18:59:04;;;;;;;13.23;5.13;;;;;;;;;;8239555;28;20411;-72
2021/07/28 19:03:08;;;;;;;14.10;3.67;;;;;;;;;;8255431;28;20072;-72
2021/07/28 19:07:14;;;;;;;10.95;4.55;;;;;;;;;;8258227;28;20363;-76
2021/07/28 19:11:24;;;;;;;7.85;4.03;;;;;;;;;;8255437;28;20349;-75
2021/07/28 19:15:28;;;;;;;11.35;4.18;;;;;;;;;;8257500;28;20383;-74
2021/07/28 19:19:33;;;;;;;8.18;3.75;;;;;;;;;;8257017;28;20475;-73
2021/07/28 19:23:38;;;;;;;11.90;4.60;;;;;;;;;;8239577;28;20345;-75
2021/07/28 19:27:44;;;;;;;13.20;5.22;;;;;;;;;;8257507;28;20041;-74
2021/07/28 19:31:49;;;;;;;12.52;4.88;;;;;;;;;;8273172;28;20367;-75
2021/07/28 19:35:55;;;;;;;11.13;5.07;;;;;;;;;;8277296;28;20049;-76
2021/07/28 19:39:59;;;;;;;13.35;5.20;;;;;;;;;;8152733;28;20384;-76
2021/07/28 19:44:04;;;;;;;13.55;6.47;;;;;;;;;;8244290;28;20464;-75
2021/07/28 19:48:17;;;;;;;20.25;7.20;;;;;;;;;;8271923;28;20452;-76
2021/07/28 19:52:22;;;;;;;18.85;7.13;;;;;;;;;;8255031;28;20460;-75
2021/07/28 19:56:27;;;;;;;15.13;6.30;;;;;;;;;;8239830;28;20344;-75
2021/07/28 20:00:32;;;;;;;13.15;5.22;;;;;;;;;;8259183;28;20501;-75
2021/07/28 20:04:37;;;;;;;23.42;6.32;;;;;;;;;;8257958;28;20418;-74
2021/07/28 20:08:42;;;;;;;12.80;5.13;;;;;;;;;;8280657;28;20071;-76
2021/07/28 20:12:49;;;;;;;11.02;4.57;;;;;;;;;;8267300;28;20460;-76
2021/07/28 20:16:54;;;;;;;10.10;4.77;;;;;;;;;;8264490;28;20375;-74
2021/07/28 20:20:59;;;;;;;12.82;4.68;;;;;;;;;;8263457;28;20683;-76
2021/07/28 20:25:11;;;;;;;11.13;4.40;;;;;;;;;;8262318;28;20059;-76
2021/07/28 20:29:15;;;;;;;13.73;4.45;;;;;;;;;;8264114;28;20476;-76
2021/07/28 20:33:20;;;;;;;7.47;4.07;;;;;;;;;;8263710;28;20375;-76
2021/07/28 20:37:24;;;;;;;9.45;4.00;;;;;;;;;;8263440;28;20502;-76
2021/07/28 20:41:27;;;;;;;9.82;4.00;;;;;;;;;;8261032;28;20059;-76
2021/07/28 20:45:31;;;;;;;14.45;4.55;;;;;;;;;;8262730;28;20057;-76
2021/07/28 20:49:35;;;;;;;11.65;3.85;;;;;;;;;;8261631;28;20361;-76
2021/07/28 20:53:40;;;;;;;9.48;3.58;;;;;;;;;;8262054;28;20049;-75
2021/07/28 20:57:46;;;;;;;5.50;3.70;;;;;;;;;;8277054;28;20491;-76
2021/07/28 21:01:51;;;;;;;5.82;3.58;;;;;;;;;;8245146;28;20603;-75
2021/07/28 21:06:00;;;;;;;7.30;3.88;;;;;;;;;;8245835;28;20473;-76
2021/07/28 21:10:06;;;;;;;6.38;3.80;;;;;;;;;;8262765;28;20376;-75
2021/07/28 21:14:10;;;;;;;11.93;3.83;;;;;;;;;;8266380;28;20049;-75
2021/07/28 21:18:16;;;;;;;10.27;3.95;;;;;;;;;;8262628;28;20403;-75
2021/07/28 21:22:21;;;;;;;5.85;3.60;;;;;;;;;;8263175;28;20446;-75
2021/07/28 21:26:26;;;;;;;6.20;3.55;;;;;;;;;;8245361;28;20483;-75
2021/07/28 21:30:34;;;;;;;4.97;3.40;;;;;;;;;;8262679;28;20371;-75
2021/07/28 21:34:39;;;;;;;7.18;3.92;;;;;;;;;;8260776;28;20399;-74
2021/07/28 21:38:44;;;;;;;10.90;3.60;;;;;;;;;;8245314;28;20348;-75
2021/07/28 21:42:57;;;;;;;5.43;2.92;;;;;;;;;;8258749;28;20361;-74
2021/07/28 21:47:02;;;;;;;6.18;3.33;;;;;;;;;;8258399;28;20451;-75
2021/07/28 21:51:14;;;;;;;5.07;3.50;;;;;;;;;;8261666;28;20045;-74
2021/07/28 21:55:23;;;;;;;7.05;3.53;;;;;;;;;;8259989;28;20041;-74
2021/07/28 21:59:36;;;;;;;4.38;3.22;;;;;;;;;;8258156;28;20368;-74
2021/07/28 22:03:41;;;;;;;7.18;3.67;;;;;;;;;;8259820;28;20471;-74
2021/07/28 22:07:48;;;;;;;11.18;4.35;;;;;;;;;;8259605;28;20459;-75
2021/07/28 22:11:58;;;;;;;8.60;3.88;;;;;;;;;;8227066;28;20506;-75
2021/07/28 22:16:06;;;;;;;6.05;3.92;;;;;;;;;;8259032;28;20345;-74
2021/07/28 22:20:12;;;;;;;4.78;3.30;;;;;;;;;;8258320;28;20398;-74
2021/07/28 22:24:26;;;;;;;7.95;4.28;;;;;;;;;;8258810;28;20041;-74
2021/07/28 22:28:31;;;;;;;9.15;3.67;;;;;;;;;;8240240;28;20415;-74
2021/07/28 22:32:35;;;;;;;5.18;3.67;;;;;;;;;;8259257;28;20358;-74
2021/07/28 22:36:40;;;;;;;5.70;3.58;;;;;;;;;;8258610;28;20482;-73
2021/07/28 22:40:45;;;;;;;5.25;3.40;;;;;;;;;;8257181;28;20372;-74
2021/07/28 22:44:50;;;;;;;7.80;3.70;;;;;;;;;;8256478;28;20372;-74
2021/07/28 22:57:41;;;;;;;6.43;4.18;;;;;;;;;;8257449;28;20391;-73
2021/07/28 23:10:32;;;;;;;5.47;3.80;;;;;;;;;;8257891;28;20470;-74
2021/07/28 23:14:38;;;;;;;8.05;3.75;;;;;;;;;;8257287;28;20365;-74
2021/07/28 23:18:42;;;;;;;6.50;3.78;;;;;;;;;;8258142;28;20064;-74
2021/07/28 23:22:48;;;;;;;12.77;4.22;;;;;;;;;;8256819;28;20439;-74
2021/07/28 23:26:53;;;;;;;7.00;4.30;;;;;;;;;;8258967;28;20483;-74
2021/07/28 23:31:08;;;;;;;6.07;4.15;;;;;;;;;;8258853;28;20091;-75
2021/07/28 23:35:13;;;;;;;6.90;4.07;;;;;;;;;;8239317;28;20464;-74
2021/07/28 23:39:17;;;;;;;6.75;4.07;;;;;;;;;;8256755;28;20065;-73
2021/07/28 23:43:23;;;;;;;5.80;3.72;;;;;;;;;;8256376;28;20475;-74
2021/07/28 23:47:27;;;;;;;7.53;3.70;;;;;;;;;;8258016;28;20045;-74
2021/07/28 23:51:33;;;;;;;11.48;3.88;;;;;;;;;;8255258;28;20375;-74
2021/07/28 23:55:39;;;;;;;7.35;3.58;;;;;;;;;;8255989;28;20472;-73
2021/07/28 23:59:43;;;;;;;8.65;4.40;;;;;;;;;;8255595;28;20472;-74
